Latest Coastal Weather Observations for Ngayawili (Elcho Island)

IDD60701

Issued at 2:11 pm CST Sunday 19 April 2015 (issued every 10 minutes, with the page automatically refreshed every 10 minutes)

About coastal observations | Map of coastal stations | Coastal observations for NT | Marine services | Other Formats
Station Details ID: 014517 Name: NGAYAWILI Lat: -12.00 Lon: 135.57 Height: 8.1 m
Data from the previous 72 hours. | See also: Recent months at Ngayawili (Elcho Island)
Date/Time
CST
Temp

°C
Wind Pressure Rain
since 9am
mm
Weather Cloud Vis
km
Sea
Height
m
Swell
Dir
 
Speed
knots
Gust
knots
hPa Trend Height
m
Period
s
Dir
19/02:00pm 26.8 SSE 16 33 1009.5 - 0.2 - - - - - - -
19/01:53pm 29.0 SE 15 33 1009.4 - 0.0 - - - - - - -
19/01:30pm 32.2 SE 11 22 1009.5 - 0.0 - - - - - - -
19/01:00pm 32.9 ESE 13 20 1009.8 - 0.0 - - - - - - -
19/12:30pm 31.3 S 12 18 1010.5 - 0.0 - - - - - - -
19/12:00pm 32.3 SE 10 17 1010.9 - 0.0 - - - - - - -
19/11:30am 32.1 ESE 12 18 1011.1 - 0.0 - - - - - - -
19/11:00am 32.3 SE 9 15 1012.0 - 0.0 - - - - - - -
19/10:30am 31.6 SE 10 14 1011.9 - 0.0 - - - - - - -
19/10:00am 30.7 SE 8 14 1012.1 - 0.0 - - - - - - -
19/09:30am 29.9 SSE 9 14 1012.0 - 0.0 - - - - - - -
19/09:00am 28.9 SSE 9 13 1011.7 - 0.0 - - - - - - -
19/08:30am 28.2 SSE 7 10 1011.7 - 0.0 - - - - - - -
19/08:00am 27.1 SSE 6 8 1011.6 - 0.0 - - - - - - -
19/07:30am 25.5 SSE 4 5 1011.5 - 0.0 - - - - - - -
19/07:00am 24.2 SSE 4 5 1011.4 - 0.0 - - - - - - -
19/06:30am 24.0 CALM 0 0 1010.8 - 0.0 - - - - - - -
19/06:00am 23.9 CALM 0 0 1010.5 - 0.0 - - - - - - -
19/05:30am 24.0 CALM 0 0 1010.4 - 0.0 - - - - - - -
19/05:00am 24.2 CALM 0 0 1010.5 - 0.0 - - - - - - -
19/04:30am 24.4 CALM 0 0 1010.4 - 0.0 - - - - - - -
19/04:00am 24.7 CALM 0 0 1010.6 - 0.0 - - - - - - -
19/03:30am 25.0 CALM 0 0 1010.5 - 0.0 - - - - - - -
19/03:00am 25.3 SSE 4 6 1010.6 - 0.0 - - - - - - -
19/02:30am 25.6 SE 4 5 1010.6 - 0.0 - - - - - - -
19/02:00am 26.0 SE 4 5 1011.1 - 0.0 - - - - - - -
19/01:30am 26.4 SE 4 7 1011.2 - 0.0 - - - - - - -
19/01:00am 26.7 SE 5 8 1011.6 - 0.0 - - - - - - -
19/12:30am 26.9 SE 5 7 1011.8 - 0.0 - - - - - - -
19/12:00am 26.9 ESE 5 8 1011.9 - 0.0 - - - - - - -
 
Date/Time
CST
Temp

°C
Wind Pressure Rain
since 9am
mm
Weather Cloud Vis
km
Sea
Height
m
Swell
Dir
 
Speed
knots
Gust
knots
hPa Trend Height
m
Period
s
Dir
18/11:30pm 27.2 ESE 5 9 1012.1 - 0.0 - - - - - - -
18/11:00pm 27.4 SE 6 11 1012.1 - 0.0 - - - - - - -
18/10:30pm 27.7 ESE 6 9 1012.1 - 0.0 - - - - - - -
18/10:00pm 27.8 ESE 6 9 1012.2 - 0.0 - - - - - - -
18/09:30pm 28.1 ESE 5 9 1012.1 - 0.0 - - - - - - -
18/09:00pm 28.0 ESE 4 6 1011.9 - 0.0 - - - - - - -
18/08:30pm 28.2 ESE 5 7 1011.5 - 0.0 - - - - - - -
18/08:00pm 28.3 E 4 5 1011.0 - 0.0 - - - - - - -
18/07:30pm 28.4 E 3 4 1010.5 - 0.0 - - - - - - -
18/07:00pm 28.8 ESE 5 7 1010.2 - 0.0 - - - - - - -
18/06:30pm 29.3 E 5 8 1009.9 - 0.0 - - - - - - -
18/06:00pm 30.0 E 7 13 1009.7 - 0.0 - - - - - - -
18/05:30pm 30.6 ESE 7 11 1009.5 - 0.0 - - - - - - -
18/05:00pm 30.8 ESE 9 17 1009.3 - 0.0 - - - - - - -
18/04:30pm 30.2 ESE 8 15 1009.3 - 0.0 - - - - - - -
18/04:00pm 30.6 E 8 13 1009.2 - 0.0 - - - - - - -
18/03:30pm 31.0 ESE 10 18 1009.0 - 0.0 - - - - - - -
18/03:00pm 31.9 E 10 17 1009.2 - 0.0 - - - - - - -
18/02:30pm 31.9 E 8 14 1009.4 - 0.0 - - - - - - -
18/02:00pm 31.7 ESE 10 16 1009.7 - 0.0 - - - - - - -
18/01:30pm 31.0 SE 11 17 1010.1 - 0.0 - - - - - - -
18/01:00pm 30.7 ESE 11 16 1010.4 - 0.0 - - - - - - -
18/12:30pm 31.5 ESE 10 15 1010.6 - 0.0 - - - - - - -
18/12:00pm 31.4 E 9 15 1011.1 - 0.0 - - - - - - -
18/11:30am 30.8 ESE 10 17 1011.7 - 0.0 - - - - - - -
18/11:00am 31.0 E 8 13 1012.2 - 0.0 - - - - - - -
18/10:30am 30.8 ESE 8 13 1012.5 - 0.0 - - - - - - -
18/10:00am 29.7 ESE 8 14 1012.6 - 0.0 - - - - - - -
18/09:30am 30.0 ESE 7 12 1012.5 - 0.0 - - - - - - -
18/09:00am 28.7 SE 8 12 1012.5 - 0.0 - - - - - - -
18/08:30am 28.3 SE 7 11 1012.4 - 0.0 - - - - - - -
18/08:00am 27.7 SE 6 8 1012.3 - 0.0 - - - - - - -
18/07:30am 26.8 ESE 5 8 1012.1 - 0.0 - - - - - - -
18/07:00am 25.6 ESE 5 7 1011.9 - 0.0 - - - - - - -
18/06:30am 25.0 ESE 5 6 1011.4 - 0.0 - - - - - - -
18/06:00am 25.1 ESE 5 6 1011.0 - 0.0 - - - - - - -
18/05:30am 24.6 SE 5 6 1010.7 - 0.0 - - - - - - -
18/05:00am 24.8 SE 5 6 1010.5 - 0.0 - - - - - - -
18/04:30am 25.1 SSE 6 7 1010.3 - 0.0 - - - - - - -
18/04:00am 25.1 SSE 5 6 1010.3 - 0.0 - - - - - - -
18/03:30am 25.4 SSE 5 6 1010.4 - 0.0 - - - - - - -
18/03:00am 24.7 SSE 4 5 1010.7 - 0.0 - - - - - - -
18/02:30am 25.0 SE 4 5 1010.7 - 0.0 - - - - - - -
18/02:00am 25.6 ESE 3 4 1011.0 - 0.0 - - - - - - -
18/01:30am 25.8 SE 5 5 1011.0 - 0.0 - - - - - - -
18/01:00am 25.6 ESE 4 5 1011.2 - 0.0 - - - - - - -
18/12:30am 26.2 ESE 4 5 1011.4 - 0.0 - - - - - - -
18/12:00am 26.6 E 4 6 1011.6 - 0.0 - - - - - - -
 
Date/Time
CST
Temp

°C
Wind Pressure Rain
since 9am
mm
Weather Cloud Vis
km
Sea
Height
m
Swell
Dir
 
Speed
knots
Gust
knots
hPa Trend Height
m
Period
s
Dir
17/11:30pm 26.7 E 4 6 1011.8 - 0.0 - - - - - - -
17/11:00pm 26.6 ESE 2 4 1011.8 - 0.0 - - - - - - -
17/10:30pm 27.2 ESE 2 4 1011.9 - 0.0 - - - - - - -
17/10:00pm 27.5 ENE 5 7 1011.7 - 0.0 - - - - - - -
17/09:30pm 27.4 E 3 7 1011.7 - 0.0 - - - - - - -
17/09:00pm 27.6 E 3 4 1011.5 - 0.0 - - - - - - -
17/08:30pm 28.0 ENE 5 7 1011.3 - 0.0 - - - - - - -
17/08:00pm 28.2 ENE 5 8 1011.2 - 0.0 - - - - - - -
17/07:30pm 28.4 ENE 5 8 1010.5 - 0.0 - - - - - - -
17/07:00pm 28.7 ENE 6 9 1010.2 - 0.0 - - - - - - -
17/06:30pm 29.0 ENE 7 11 1009.8 - 0.0 - - - - - - -
17/06:00pm 29.6 ENE 8 12 1009.7 - 0.0 - - - - - - -
17/05:30pm 29.9 E 9 15 1009.7 - 0.0 - - - - - - -
17/05:00pm 30.4 E 11 16 1009.1 - 0.0 - - - - - - -
17/04:30pm 30.9 ENE 11 17 1009.1 - 0.0 - - - - - - -
17/04:00pm 31.5 ENE 11 17 1009.0 - 0.0 - - - - - - -
17/03:30pm 31.3 NE 11 17 1008.8 - 0.0 - - - - - - -
17/03:00pm 32.8 NE 8 13 1008.9 - 0.0 - - - - - - -
17/02:30pm 32.4 E 9 15 1009.3 - 0.0 - - - - - - -
17/02:00pm 32.1 ENE 9 14 1009.7 - 0.0 - - - - - - -
17/01:30pm 31.0 ENE 8 14 1010.1 - 0.0 - - - - - - -
17/01:00pm 32.2 E 8 13 1010.6 - 0.0 - - - - - - -
17/12:30pm 30.9 E 5 8 1011.2 - 0.0 - - - - - - -
17/12:00pm 30.9 ESE 7 11 1011.7 - 0.0 - - - - - - -
17/11:30am 31.6 E 7 12 1012.1 - 0.0 - - - - - - -
17/11:00am 30.4 E 9 13 1012.6 - 0.0 - - - - - - -
17/10:30am 30.5 E 9 15 1012.9 - 0.0 - - - - - - -
17/10:00am 29.7 E 9 16 1012.9 - 0.0 - - - - - - -
17/09:30am 29.8 E 9 14 1013.0 - 0.0 - - - - - - -
17/09:00am 29.7 E 9 15 1012.9 - 0.2 - - - - - - -
17/08:30am 28.7 E 8 13 1012.8 - 0.2 - - - - - - -
17/08:00am 28.3 E 4 8 1012.7 - 0.2 - - - - - - -
17/07:30am 27.2 CALM 0 2 1012.4 - 0.2 - - - - - - -
17/07:00am 25.5 ESE 4 5 1012.1 - 0.2 - - - - - - -
17/06:30am 24.8 ESE 4 5 1011.5 - 0.2 - - - - - - -
17/06:00am 24.6 ESE 1 4 1011.3 - 0.2 - - - - - - -
17/05:30am 24.6 SE 4 5 1011.1 - 0.2 - - - - - - -
17/05:00am 24.6 SE 5 6 1011.0 - 0.2 - - - - - - -
17/04:30am 24.7 SSE 5 7 1011.1 - 0.2 - - - - - - -
17/04:00am 24.5 SSE 5 6 1011.3 - 0.2 - - - - - - -
17/03:30am 24.7 SE 3 4 1011.4 - 0.2 - - - - - - -
17/03:00am 24.9 SSE 4 5 1011.5 - 0.2 - - - - - - -
17/02:30am 25.2 S 3 4 1011.6 - 0.2 - - - - - - -
17/02:00am 25.7 SSE 5 6 1011.8 - 0.2 - - - - - - -
17/01:30am 26.1 SSE 4 5 1012.1 - 0.2 - - - - - - -
17/01:00am 26.7 ESE 4 6 1012.5 - 0.2 - - - - - - -
17/12:30am 27.2 ESE 6 8 1013.1 - 0.2 - - - - - - -
17/12:00am 27.4 ESE 6 9 1013.5 - 0.2 - - - - - - -
 
Date/Time
CST
Temp

°C
Wind Pressure Rain
since 9am
mm
Weather Cloud Vis
km
Sea
Height
m
Swell
Dir
 
Speed
knots
Gust
knots
hPa Trend Height
m
Period
s
Dir
16/11:30pm 27.5 ESE 6 9 1013.5 - 0.2 - - - - - - -
16/11:00pm 27.8 ESE 6 9 1013.7 - 0.2 - - - - - - -
16/10:30pm 28.1 ESE 6 10 1013.7 - 0.2 - - - - - - -
16/10:00pm 28.2 ESE 7 11 1014.0 - 0.2 - - - - - - -
16/09:30pm 28.4 ESE 6 9 1014.0 - 0.2 - - - - - - -
16/09:00pm 28.3 E 6 11 1013.8 - 0.2 - - - - - - -
16/08:30pm 28.6 E 6 11 1013.3 - 0.2 - - - - - - -
16/08:00pm 28.5 ENE 5 7 1012.9 - 0.2 - - - - - - -
16/07:30pm 28.5 ENE 5 8 1012.2 - 0.2 - - - - - - -
16/07:00pm 28.6 ENE 6 9 1011.8 - 0.2 - - - - - - -
16/06:30pm 29.0 ENE 7 11 1011.5 - 0.2 - - - - - - -
16/06:00pm 29.5 ENE 7 13 1011.2 - 0.2 - - - - - - -
16/05:30pm 30.4 ENE 8 15 1011.1 - 0.2 - - - - - - -
16/05:00pm 31.1 E 9 13 1011.0 - 0.2 - - - - - - -
16/04:30pm 31.4 ENE 9 13 1010.8 - 0.2 - - - - - - -
16/04:00pm 31.5 ENE 9 12 1010.6 - 0.2 - - - - - - -
16/03:30pm 31.6 ENE 10 14 1010.7 - 0.2 - - - - - - -
16/03:00pm 32.1 ENE 9 15 1010.9 - 0.2 - - - - - - -
16/02:30pm 32.0 E 9 14 1011.2 - 0.2 - - - - - - -

Other Formats:

Comma delimited format used in spreadsheet applications
http://www.bom.gov.au/fwo/IDD60701/IDD60701.95146.axf

JavaScript Object Notation format (JSON) in row-major order
http://www.bom.gov.au/fwo/IDD60701/IDD60701.95146.json